createdAt,value
2022-11-16T00:00:08.540Z,4.8
2022-11-16T00:01:00.904Z,4.8
2022-11-16T00:02:00.577Z,4.8
2022-11-16T00:03:00.518Z,4.8
2022-11-16T00:04:00.332Z,4.8
2022-11-16T00:05:00.523Z,4.8
2022-11-16T00:06:00.335Z,4.7
2022-11-16T00:07:00.442Z,4.7
2022-11-16T00:08:00.284Z,4.7
2022-11-16T00:09:00.402Z,4.7
2022-11-16T00:10:00.303Z,4.7
2022-11-16T00:11:00.338Z,4.7
2022-11-16T00:12:00.365Z,4.7
2022-11-16T00:13:00.596Z,4.7
2022-11-16T00:14:00.404Z,4.7
2022-11-16T00:15:00.339Z,4.7
2022-11-16T00:16:00.633Z,4.7
2022-11-16T00:17:00.506Z,4.7
2022-11-16T00:18:00.440Z,4.7
2022-11-16T00:19:01.485Z,4.7
2022-11-16T00:20:00.429Z,4.7
2022-11-16T00:21:00.506Z,4.7
2022-11-16T00:22:00.282Z,4.6
2022-11-16T00:23:00.393Z,4.6
2022-11-16T00:24:00.531Z,4.7
2022-11-16T00:25:00.497Z,4.7
2022-11-16T00:26:00.321Z,4.8
2022-11-16T00:27:00.447Z,4.9
2022-11-16T00:28:00.498Z,4.9
2022-11-16T00:29:00.375Z,5.0
2022-11-16T00:30:00.277Z,5.0
2022-11-16T00:31:00.467Z,5.0
2022-11-16T00:32:00.295Z,4.9
2022-11-16T00:33:00.300Z,4.9
2022-11-16T00:34:00.278Z,4.9
2022-11-16T00:35:00.314Z,4.9
2022-11-16T00:36:00.283Z,4.8
2022-11-16T00:37:00.430Z,4.8
2022-11-16T00:38:00.283Z,4.8
2022-11-16T00:39:00.311Z,4.8
2022-11-16T00:40:00.316Z,4.8
2022-11-16T00:41:00.306Z,4.8
2022-11-16T00:42:00.290Z,4.8
2022-11-16T00:43:00.481Z,4.7
2022-11-16T00:44:00.326Z,4.7
2022-11-16T00:45:00.324Z,4.7
2022-11-16T00:46:00.498Z,4.7
2022-11-16T00:47:00.359Z,4.7
2022-11-16T00:48:00.841Z,4.7
2022-11-16T00:49:00.516Z,4.8
2022-11-16T00:50:00.367Z,4.7
2022-11-16T00:51:00.294Z,4.8
2022-11-16T00:52:00.295Z,4.8
2022-11-16T00:53:00.336Z,4.8
2022-11-16T00:54:00.307Z,4.8
2022-11-16T00:55:00.631Z,4.8
2022-11-16T00:56:00.311Z,4.8
2022-11-16T00:57:00.342Z,4.8
2022-11-16T00:58:00.319Z,4.8
2022-11-16T00:59:00.356Z,4.8
2022-11-16T01:00:00.322Z,4.7
2022-11-16T01:01:00.504Z,4.7
2022-11-16T01:02:00.558Z,4.7
2022-11-16T01:03:00.319Z,4.7
2022-11-16T01:04:00.312Z,4.7
2022-11-16T01:05:00.283Z,4.6
2022-11-16T01:06:00.287Z,4.6
2022-11-16T01:07:00.493Z,4.6
2022-11-16T01:08:00.316Z,4.6
2022-11-16T01:09:00.279Z,4.6
2022-11-16T01:10:00.281Z,4.6
2022-11-16T01:11:00.298Z,4.6
2022-11-16T01:12:00.322Z,4.6
2022-11-16T01:13:00.506Z,4.6
2022-11-16T01:14:00.305Z,4.6
2022-11-16T01:15:00.325Z,4.6
2022-11-16T01:16:00.362Z,4.6
2022-11-16T01:17:00.307Z,4.6
2022-11-16T01:18:00.400Z,4.6
2022-11-16T01:19:00.490Z,4.5
2022-11-16T01:20:00.342Z,4.5
2022-11-16T01:21:00.357Z,4.5
2022-11-16T01:22:00.402Z,4.4
2022-11-16T01:23:00.313Z,4.4
2022-11-16T01:24:00.287Z,4.4
2022-11-16T01:25:00.457Z,4.4
2022-11-16T01:26:00.319Z,4.4
2022-11-16T01:27:00.321Z,4.4
2022-11-16T01:28:00.283Z,4.3
2022-11-16T01:29:00.282Z,4.3
2022-11-16T01:30:00.339Z,4.3
2022-11-16T01:31:00.446Z,4.3
2022-11-16T01:32:00.509Z,4.3
2022-11-16T01:33:00.417Z,4.3
2022-11-16T01:34:00.280Z,4.3
2022-11-16T01:35:00.359Z,4.4
2022-11-16T01:36:00.404Z,4.4
2022-11-16T01:37:00.451Z,4.4
2022-11-16T01:38:00.303Z,4.4
2022-11-16T01:39:00.341Z,4.4
2022-11-16T01:40:00.351Z,4.4
2022-11-16T01:41:00.324Z,4.5
2022-11-16T01:42:00.306Z,4.5
2022-11-16T01:43:00.504Z,4.5
2022-11-16T01:44:00.397Z,4.5
2022-11-16T01:45:00.328Z,4.5
2022-11-16T01:46:00.310Z,4.4
2022-11-16T01:47:00.286Z,4.4
2022-11-16T01:48:00.398Z,4.4
2022-11-16T01:49:00.454Z,4.3
2022-11-16T01:50:00.323Z,4.3
2022-11-16T01:51:00.311Z,4.3
2022-11-16T01:52:00.282Z,4.2
2022-11-16T01:53:00.316Z,4.2
2022-11-16T01:54:00.292Z,4.1
2022-11-16T01:55:00.522Z,4.1
2022-11-16T01:56:00.282Z,4.1
2022-11-16T01:57:00.339Z,4.1
2022-11-16T01:58:00.343Z,4.0
2022-11-16T01:59:00.302Z,4.0
2022-11-16T02:00:00.408Z,4.0
2022-11-16T02:01:00.755Z,3.9
2022-11-16T02:02:00.309Z,3.9
2022-11-16T02:03:00.294Z,3.9
2022-11-16T02:04:00.527Z,3.8
2022-11-16T02:05:00.306Z,3.8
2022-11-16T02:06:00.297Z,3.8
2022-11-16T02:07:00.444Z,3.8
2022-11-16T02:08:00.278Z,3.7
2022-11-16T02:09:00.321Z,3.7
2022-11-16T02:10:00.353Z,3.7
2022-11-16T02:11:00.294Z,3.7
2022-11-16T02:12:00.319Z,3.7
2022-11-16T02:13:00.450Z,3.7
2022-11-16T02:14:00.298Z,3.7
2022-11-16T02:15:00.295Z,3.7
2022-11-16T02:16:00.304Z,3.7
2022-11-16T02:17:00.313Z,3.7
2022-11-16T02:18:00.310Z,3.8
2022-11-16T02:19:00.594Z,3.8
2022-11-16T02:20:00.355Z,3.8
2022-11-16T02:21:00.316Z,3.8
2022-11-16T02:22:00.304Z,3.8
2022-11-16T02:23:00.306Z,3.8
2022-11-16T02:24:00.377Z,3.8
2022-11-16T02:25:00.497Z,3.8
2022-11-16T02:26:00.283Z,3.8
2022-11-16T02:27:00.323Z,3.8
2022-11-16T02:28:00.381Z,3.8
2022-11-16T02:29:00.306Z,3.7
2022-11-16T02:30:00.395Z,3.7
2022-11-16T02:31:00.500Z,3.8
2022-11-16T02:32:00.303Z,3.8
2022-11-16T02:33:00.302Z,3.8
2022-11-16T02:34:00.324Z,3.8
2022-11-16T02:35:00.359Z,3.7
2022-11-16T02:36:00.306Z,3.7
2022-11-16T02:37:00.465Z,3.7
2022-11-16T02:38:00.418Z,3.7
2022-11-16T02:39:00.312Z,3.7
2022-11-16T02:40:00.294Z,3.7
2022-11-16T02:41:00.313Z,3.7
2022-11-16T02:42:00.356Z,3.7
2022-11-16T02:43:00.527Z,3.7
2022-11-16T02:44:00.328Z,3.7
2022-11-16T02:45:00.292Z,3.7
2022-11-16T02:46:00.381Z,3.7
2022-11-16T02:47:00.309Z,3.7
2022-11-16T02:48:00.323Z,3.7
2022-11-16T02:49:00.430Z,3.7
2022-11-16T02:50:00.318Z,3.7
2022-11-16T02:51:00.456Z,3.7
2022-11-16T02:52:00.304Z,3.8
2022-11-16T02:53:00.298Z,3.8
2022-11-16T02:54:00.340Z,3.8
2022-11-16T02:55:00.520Z,3.8
2022-11-16T02:56:00.297Z,3.8
2022-11-16T02:57:00.375Z,3.8
2022-11-16T02:58:00.384Z,3.7
2022-11-16T02:59:00.337Z,3.8
2022-11-16T03:00:00.382Z,3.8
2022-11-16T03:01:00.710Z,3.8
2022-11-16T03:02:00.364Z,3.8
2022-11-16T03:03:00.336Z,3.8
2022-11-16T03:04:00.309Z,3.8
2022-11-16T03:05:00.299Z,3.8
2022-11-16T03:06:00.431Z,3.8
2022-11-16T03:07:00.595Z,3.8
2022-11-16T03:08:00.284Z,3.8
2022-11-16T03:09:00.321Z,3.8
2022-11-16T03:10:00.295Z,3.8
2022-11-16T03:11:00.284Z,3.8
2022-11-16T03:12:00.334Z,3.8
2022-11-16T03:13:00.614Z,3.7
2022-11-16T03:14:00.407Z,3.7
2022-11-16T03:15:00.327Z,3.7
2022-11-16T03:16:00.368Z,3.7
2022-11-16T03:17:00.353Z,3.7
2022-11-16T03:18:00.298Z,3.7
2022-11-16T03:19:00.539Z,3.6
2022-11-16T03:20:00.321Z,3.6
2022-11-16T03:21:00.413Z,3.6
2022-11-16T03:22:00.459Z,3.5
2022-11-16T03:23:00.309Z,3.5
2022-11-16T03:24:00.282Z,3.5
2022-11-16T03:25:00.378Z,3.5
2022-11-16T03:26:00.301Z,3.5
2022-11-16T03:27:00.292Z,3.5
2022-11-16T03:28:00.332Z,3.5
2022-11-16T03:29:00.395Z,3.5
2022-11-16T03:30:00.380Z,3.5
2022-11-16T03:31:00.512Z,3.5
2022-11-16T03:32:00.340Z,3.5
2022-11-16T03:33:00.346Z,3.5
2022-11-16T03:34:00.296Z,3.5
2022-11-16T03:35:00.327Z,3.5
2022-11-16T03:36:00.321Z,3.5
2022-11-16T03:37:00.631Z,3.5
2022-11-16T03:38:00.292Z,3.5
2022-11-16T03:39:00.306Z,3.5
2022-11-16T03:40:00.326Z,3.5
2022-11-16T03:41:00.320Z,3.5
2022-11-16T03:42:00.324Z,3.5
2022-11-16T03:43:00.462Z,3.5
2022-11-16T03:44:00.304Z,3.5
2022-11-16T03:45:00.305Z,3.5
2022-11-16T03:46:00.303Z,3.5
2022-11-16T03:47:00.283Z,3.5
2022-11-16T03:48:00.305Z,3.5
2022-11-16T03:49:00.539Z,3.5
2022-11-16T03:50:00.332Z,3.5
2022-11-16T03:51:00.292Z,3.6
2022-11-16T03:52:00.475Z,3.6
2022-11-16T03:53:00.434Z,3.6
2022-11-16T03:54:00.297Z,3.6
2022-11-16T03:55:00.431Z,3.6
2022-11-16T03:56:00.297Z,3.6
2022-11-16T03:57:00.304Z,3.7
2022-11-16T03:58:00.298Z,3.7
2022-11-16T03:59:00.277Z,3.7
2022-11-16T04:00:00.282Z,3.8
2022-11-16T04:01:00.554Z,3.8
2022-11-16T04:02:00.278Z,3.9
2022-11-16T04:03:00.294Z,3.9
2022-11-16T04:04:00.348Z,4.0
2022-11-16T04:05:00.317Z,4.0
2022-11-16T04:06:00.289Z,4.1
2022-11-16T04:07:00.538Z,4.1
2022-11-16T04:08:00.494Z,4.2
2022-11-16T04:09:00.308Z,4.3
2022-11-16T04:10:00.337Z,4.7
2022-11-16T04:11:00.280Z,5.5
2022-11-16T04:12:00.309Z,6.4
2022-11-16T04:13:00.472Z,7.0
2022-11-16T04:14:01.595Z,7.6
2022-11-16T04:15:00.290Z,8.3
2022-11-16T04:16:00.287Z,9.0
2022-11-16T04:17:00.301Z,9.6
2022-11-16T04:18:00.358Z,10.2
2022-11-16T04:19:00.497Z,10.7
2022-11-16T04:20:00.339Z,11.2
2022-11-16T04:21:00.369Z,11.6
2022-11-16T04:22:00.306Z,12.2
2022-11-16T04:23:00.463Z,12.6
2022-11-16T04:24:00.352Z,13.1
2022-11-16T04:25:00.473Z,13.6
2022-11-16T04:26:00.317Z,14.0
2022-11-16T04:27:00.279Z,14.5
2022-11-16T04:28:00.320Z,14.9
2022-11-16T04:29:00.294Z,15.4
2022-11-16T04:30:00.324Z,15.9
2022-11-16T04:31:00.421Z,16.2
2022-11-16T04:32:00.297Z,16.6
2022-11-16T04:33:00.326Z,17.0
2022-11-16T04:34:00.315Z,17.2
2022-11-16T04:35:00.303Z,17.4
2022-11-16T04:36:00.330Z,17.3
2022-11-16T04:37:00.493Z,17.0
2022-11-16T04:38:00.302Z,16.6
2022-11-16T04:39:00.426Z,16.1
2022-11-16T04:40:00.320Z,15.8
2022-11-16T04:41:00.318Z,16.2
2022-11-16T04:42:00.295Z,16.4
2022-11-16T04:43:00.436Z,16.0
2022-11-16T04:44:00.305Z,15.0
2022-11-16T04:45:00.315Z,13.8
2022-11-16T04:46:00.318Z,12.9
2022-11-16T04:47:00.275Z,12.2
2022-11-16T04:48:00.327Z,11.6
2022-11-16T04:49:00.453Z,11.1
2022-11-16T04:50:00.379Z,10.7
2022-11-16T04:51:00.370Z,10.5
2022-11-16T04:52:00.337Z,10.7
2022-11-16T04:53:00.281Z,11.1
2022-11-16T04:54:00.509Z,11.4
2022-11-16T04:55:00.542Z,11.6
2022-11-16T04:56:01.063Z,11.5
2022-11-16T04:57:00.296Z,11.6
2022-11-16T04:58:00.300Z,12.0
2022-11-16T04:59:00.301Z,13.3
2022-11-16T05:00:00.344Z,12.6
2022-11-16T05:01:00.574Z,12.4
2022-11-16T05:02:00.319Z,12.0
2022-11-16T05:03:01.772Z,11.5
2022-11-16T05:04:00.357Z,11.5
2022-11-16T05:05:00.329Z,11.5
2022-11-16T05:06:00.340Z,11.6
2022-11-16T05:07:00.531Z,12.7
2022-11-16T05:08:00.292Z,12.8
2022-11-16T05:09:00.302Z,12.6
2022-11-16T05:10:00.435Z,13.2
2022-11-16T05:11:00.325Z,13.3
2022-11-16T05:12:00.383Z,13.9
2022-11-16T05:13:00.548Z,14.9
2022-11-16T05:14:00.322Z,14.2
2022-11-16T05:15:00.383Z,14.9
2022-11-16T05:16:00.352Z,14.8
2022-11-16T05:17:00.306Z,14.4
2022-11-16T05:18:00.296Z,14.7
2022-11-16T05:19:00.687Z,15.6
2022-11-16T05:20:00.344Z,16.3
2022-11-16T05:21:00.298Z,17.2
2022-11-16T05:22:00.299Z,18.3
2022-11-16T05:23:00.296Z,19.2
2022-11-16T05:24:00.301Z,18.4
2022-11-16T05:25:00.522Z,18.6
2022-11-16T05:26:00.508Z,19.2
2022-11-16T05:27:00.284Z,20.6
2022-11-16T05:28:00.395Z,21.2
2022-11-16T05:29:00.343Z,21.7
2022-11-16T05:30:00.315Z,21.6
2022-11-16T05:31:00.429Z,20.9
2022-11-16T05:32:00.378Z,21.8
2022-11-16T05:33:00.394Z,21.5
2022-11-16T05:34:00.296Z,22.1
2022-11-16T05:35:00.361Z,23.0
2022-11-16T05:36:00.280Z,23.2
2022-11-16T05:37:00.470Z,23.4
2022-11-16T05:38:00.309Z,24.2
2022-11-16T05:39:00.316Z,24.8
2022-11-16T05:40:00.314Z,25.3
2022-11-16T05:41:00.438Z,25.7
2022-11-16T05:42:00.281Z,25.9
2022-11-16T05:43:00.544Z,26.4
2022-11-16T05:44:00.306Z,26.9
2022-11-16T05:45:00.307Z,27.4
2022-11-16T05:46:00.330Z,27.8
2022-11-16T05:47:00.331Z,28.2
2022-11-16T05:48:00.299Z,28.3
2022-11-16T05:49:00.412Z,28.3
2022-11-16T05:50:00.327Z,27.6
2022-11-16T05:51:00.366Z,27.9
2022-11-16T05:52:00.332Z,28.7
2022-11-16T05:53:00.330Z,29.1
2022-11-16T05:54:00.307Z,29.2
2022-11-16T05:55:00.546Z,29.3
2022-11-16T05:56:00.534Z,29.6
2022-11-16T05:57:00.444Z,29.2
2022-11-16T05:58:00.353Z,28.1
2022-11-16T05:59:00.308Z,26.8
2022-11-16T06:00:00.362Z,26.3
2022-11-16T06:01:00.429Z,26.1
2022-11-16T06:02:00.299Z,25.9
2022-11-16T06:03:00.474Z,24.7
2022-11-16T06:04:00.295Z,23.3
2022-11-16T06:05:00.301Z,22.5
2022-11-16T06:06:00.324Z,22.1
2022-11-16T06:07:00.501Z,21.8
2022-11-16T06:08:00.310Z,22.6
2022-11-16T06:09:00.334Z,23.6
2022-11-16T06:10:00.311Z,22.3
2022-11-16T06:11:00.304Z,21.0
2022-11-16T06:12:00.493Z,20.0
2022-11-16T06:13:00.402Z,19.0
2022-11-16T06:14:00.299Z,18.2
2022-11-16T06:15:00.310Z,17.4
2022-11-16T06:16:00.300Z,16.7
2022-11-16T06:17:00.319Z,16.2
2022-11-16T06:18:00.301Z,15.7
2022-11-16T06:19:00.461Z,15.3
2022-11-16T06:20:00.286Z,15.0
2022-11-16T06:21:00.308Z,14.7
2022-11-16T06:22:00.293Z,14.5
2022-11-16T06:23:00.297Z,14.3
2022-11-16T06:24:00.344Z,14.1
2022-11-16T06:25:00.444Z,13.9
2022-11-16T06:26:00.345Z,13.8
2022-11-16T06:27:00.445Z,13.7
2022-11-16T06:28:05.260Z,13.7
2022-11-16T06:29:00.279Z,13.7
2022-11-16T06:30:00.301Z,13.6
2022-11-16T06:31:00.505Z,13.6
2022-11-16T06:32:00.308Z,13.6
2022-11-16T06:33:00.379Z,13.6
2022-11-16T06:34:00.294Z,13.6
2022-11-16T06:35:00.324Z,13.6
2022-11-16T06:36:00.329Z,13.6
2022-11-16T06:37:00.713Z,13.6
2022-11-16T06:38:00.322Z,13.6
2022-11-16T06:39:00.318Z,13.7
2022-11-16T06:40:00.290Z,13.7
2022-11-16T06:41:00.284Z,13.8
2022-11-16T06:42:00.442Z,13.8
2022-11-16T06:43:00.434Z,13.7
2022-11-16T06:44:00.297Z,13.7
2022-11-16T06:45:00.283Z,13.6
2022-11-16T06:46:00.339Z,13.6
2022-11-16T06:47:00.582Z,13.7
2022-11-16T06:48:00.407Z,13.7
2022-11-16T06:49:00.670Z,13.7
2022-11-16T06:50:00.287Z,13.6
2022-11-16T06:51:00.310Z,13.5
2022-11-16T06:52:00.319Z,13.5
2022-11-16T06:53:00.309Z,13.4
2022-11-16T06:54:00.320Z,13.4
2022-11-16T06:55:00.555Z,13.4
2022-11-16T06:56:00.310Z,13.4
2022-11-16T06:57:00.405Z,13.5
2022-11-16T06:58:00.389Z,13.5
2022-11-16T06:59:00.420Z,13.6
2022-11-16T07:00:00.504Z,13.7
2022-11-16T07:01:00.462Z,13.7
2022-11-16T07:02:00.397Z,13.7
2022-11-16T07:03:00.354Z,13.7
2022-11-16T07:04:00.333Z,13.7
2022-11-16T07:05:03.549Z,13.7
2022-11-16T07:06:00.296Z,13.8
2022-11-16T07:07:00.511Z,13.8
2022-11-16T07:08:00.328Z,13.9
2022-11-16T07:09:00.304Z,13.8
2022-11-16T07:10:00.306Z,13.7
2022-11-16T07:11:04.181Z,13.6
2022-11-16T07:12:00.492Z,13.5
2022-11-16T07:13:00.506Z,13.5
2022-11-16T07:14:00.281Z,13.3
2022-11-16T07:15:00.305Z,13.2
2022-11-16T07:16:00.300Z,13.1
2022-11-16T07:17:03.940Z,13.0
2022-11-16T07:18:00.297Z,12.9
2022-11-16T07:19:00.572Z,12.8
2022-11-16T07:20:00.311Z,12.9
2022-11-16T07:21:00.323Z,12.8
2022-11-16T07:22:00.278Z,12.8
2022-11-16T07:23:00.283Z,12.7
2022-11-16T07:24:00.323Z,12.6
2022-11-16T07:25:00.422Z,12.5
2022-11-16T07:26:00.328Z,12.5
2022-11-16T07:27:00.300Z,12.5
2022-11-16T07:28:00.291Z,12.4
2022-11-16T07:29:00.520Z,12.4
2022-11-16T07:30:00.291Z,12.3
2022-11-16T07:31:00.571Z,12.3
2022-11-16T07:32:00.309Z,12.2
2022-11-16T07:33:00.394Z,12.3
2022-11-16T07:34:00.330Z,12.3
2022-11-16T07:35:00.366Z,12.4
2022-11-16T07:36:00.311Z,12.5
2022-11-16T07:37:00.648Z,12.6
2022-11-16T07:38:00.291Z,12.6
2022-11-16T07:39:00.302Z,12.6
2022-11-16T07:40:00.286Z,12.6
2022-11-16T07:41:00.297Z,12.7
2022-11-16T07:42:00.280Z,12.7
2022-11-16T07:43:00.459Z,12.8
2022-11-16T07:44:00.491Z,12.8
2022-11-16T07:45:00.390Z,12.9
2022-11-16T07:46:21.379Z,12.9
2022-11-16T07:47:00.307Z,13.0
2022-11-16T07:48:00.325Z,13.2
2022-11-16T07:49:00.423Z,13.3
2022-11-16T07:50:00.331Z,13.4
2022-11-16T07:51:00.295Z,13.4
2022-11-16T07:52:00.279Z,13.5
2022-11-16T07:53:00.325Z,13.7
2022-11-16T07:54:00.289Z,13.8
2022-11-16T07:55:00.428Z,13.8
2022-11-16T07:56:00.348Z,13.8
2022-11-16T07:57:00.346Z,13.8
2022-11-16T07:58:00.290Z,13.8
2022-11-16T07:59:00.300Z,13.8
2022-11-16T08:00:00.397Z,13.9
2022-11-16T08:01:00.450Z,14.0
2022-11-16T08:02:00.423Z,14.1
2022-11-16T08:03:00.321Z,14.3
2022-11-16T08:04:00.296Z,14.3
2022-11-16T08:05:00.328Z,14.3
2022-11-16T08:06:00.287Z,14.3
2022-11-16T08:07:00.482Z,14.3
2022-11-16T08:08:00.582Z,14.2
2022-11-16T08:09:00.297Z,14.2
2022-11-16T08:10:00.402Z,14.2
2022-11-16T08:11:00.309Z,14.2
2022-11-16T08:12:00.351Z,14.3
2022-11-16T08:13:00.594Z,14.4
2022-11-16T08:14:00.349Z,14.7
2022-11-16T08:15:00.538Z,15.3
2022-11-16T08:16:00.465Z,16.0
2022-11-16T08:17:00.421Z,17.4
2022-11-16T08:18:00.523Z,18.5
2022-11-16T08:19:00.618Z,18.9
2022-11-16T08:20:00.368Z,19.1
2022-11-16T08:21:00.503Z,19.2
2022-11-16T08:22:00.507Z,19.1
2022-11-16T08:23:00.548Z,19.2
2022-11-16T08:24:00.581Z,19.5
2022-11-16T08:25:00.462Z,19.7
2022-11-16T08:26:00.478Z,20.1
2022-11-16T08:27:00.299Z,20.1
2022-11-16T08:28:00.307Z,20.4
2022-11-16T08:29:00.301Z,20.8
2022-11-16T08:30:00.469Z,21.0
2022-11-16T08:31:00.452Z,21.0
2022-11-16T08:32:00.291Z,21.1
2022-11-16T08:33:00.331Z,20.5
2022-11-16T08:34:00.317Z,20.1
2022-11-16T08:35:00.337Z,19.6
2022-11-16T08:36:00.333Z,19.4
2022-11-16T08:37:00.511Z,19.5
2022-11-16T08:38:00.324Z,19.9
2022-11-16T08:39:00.320Z,21.8
2022-11-16T08:40:00.297Z,22.5
2022-11-16T08:41:00.337Z,23.6
2022-11-16T08:42:00.338Z,23.9
2022-11-16T08:43:00.589Z,23.4
2022-11-16T08:44:00.342Z,23.2
2022-11-16T08:45:00.441Z,21.9
2022-11-16T08:46:00.372Z,20.7
2022-11-16T08:47:00.427Z,19.9
2022-11-16T08:48:03.969Z,18.8
2022-11-16T08:49:00.857Z,18.1
2022-11-16T08:51:17.454Z,17.2
2022-11-16T08:53:00.425Z,16.3
2022-11-16T08:54:00.441Z,16.0
2022-11-16T08:55:00.552Z,15.7
2022-11-16T08:56:00.331Z,15.5
2022-11-16T08:57:00.311Z,15.5
2022-11-16T08:58:00.353Z,15.5
2022-11-16T08:59:00.293Z,15.6
2022-11-16T09:00:00.466Z,15.7
2022-11-16T09:01:00.846Z,15.9
2022-11-16T09:02:00.409Z,16.6
2022-11-16T09:03:00.643Z,16.8
2022-11-16T09:04:00.352Z,16.8
2022-11-16T09:05:00.366Z,16.7
2022-11-16T09:06:01.057Z,16.5
2022-11-16T09:07:00.537Z,16.2
2022-11-16T09:08:00.352Z,16.1
2022-11-16T09:09:00.349Z,16.1
2022-11-16T09:10:00.298Z,15.9
2022-11-16T09:11:00.457Z,15.9
2022-11-16T09:12:02.156Z,16.0
2022-11-16T09:13:00.582Z,16.2
2022-11-16T09:14:04.666Z,16.7
2022-11-16T09:15:00.360Z,16.5
2022-11-16T09:16:00.385Z,16.5
2022-11-16T09:17:00.290Z,16.4
2022-11-16T09:18:00.279Z,16.2
2022-11-16T09:19:00.516Z,16.0
2022-11-16T09:20:00.274Z,15.9
2022-11-16T09:21:00.319Z,15.6
2022-11-16T09:22:00.389Z,15.3
2022-11-16T09:23:00.292Z,15.0
2022-11-16T09:24:00.377Z,14.9
2022-11-16T09:25:00.604Z,14.6
2022-11-16T09:26:00.284Z,14.3
2022-11-16T09:27:00.309Z,14.0
2022-11-16T09:28:00.293Z,13.8
2022-11-16T09:29:00.313Z,13.7
2022-11-16T09:30:00.302Z,13.7
2022-11-16T09:31:00.665Z,13.7
2022-11-16T09:32:00.286Z,13.7
2022-11-16T09:33:00.290Z,13.6
2022-11-16T09:34:00.293Z,13.5
2022-11-16T09:35:00.325Z,13.5
2022-11-16T09:36:00.286Z,13.4
2022-11-16T09:37:00.429Z,13.3
2022-11-16T09:38:00.300Z,13.3
2022-11-16T09:39:30.544Z,13.3
2022-11-16T09:41:00.358Z,13.3
2022-11-16T09:42:00.301Z,13.3
2022-11-16T09:43:00.490Z,13.4
2022-11-16T09:44:00.293Z,13.4
2022-11-16T09:45:00.316Z,13.4
2022-11-16T09:46:00.551Z,13.3
2022-11-16T09:47:00.412Z,13.4
2022-11-16T09:48:00.284Z,13.4
2022-11-16T09:49:00.412Z,13.5
2022-11-16T09:50:04.117Z,13.6
2022-11-16T09:51:00.294Z,13.6
2022-11-16T09:52:00.297Z,13.6
2022-11-16T09:53:03.883Z,13.7
2022-11-16T09:54:00.316Z,13.7
2022-11-16T09:55:00.500Z,13.8
2022-11-16T09:56:00.298Z,13.8
2022-11-16T09:57:00.301Z,13.8
2022-11-16T09:58:00.346Z,13.8
2022-11-16T09:59:00.292Z,13.8
2022-11-16T10:00:00.373Z,14.0
2022-11-16T10:01:00.720Z,14.2
2022-11-16T10:02:00.506Z,14.5
2022-11-16T10:03:00.457Z,14.7
2022-11-16T10:04:00.309Z,14.7
2022-11-16T10:05:00.311Z,14.6
2022-11-16T10:06:00.428Z,14.5
2022-11-16T10:07:01.098Z,14.4
2022-11-16T10:08:00.694Z,14.3
2022-11-16T10:09:00.773Z,14.2
2022-11-16T10:10:00.702Z,14.1
2022-11-16T10:11:00.733Z,14.0
2022-11-16T10:12:00.649Z,13.9
2022-11-16T10:13:00.782Z,13.8
2022-11-16T10:14:04.224Z,13.7
2022-11-16T10:15:00.805Z,13.7
2022-11-16T10:16:00.663Z,13.7
2022-11-16T10:17:00.673Z,13.8
2022-11-16T10:18:00.842Z,13.8
2022-11-16T10:19:01.017Z,14.0
2022-11-16T10:20:00.614Z,14.1
2022-11-16T10:21:00.488Z,14.1
2022-11-16T10:22:00.720Z,14.2
2022-11-16T10:23:00.690Z,14.3
2022-11-16T10:24:00.742Z,14.5
2022-11-16T10:25:01.060Z,14.6
2022-11-16T10:26:00.529Z,14.6
2022-11-16T10:27:00.685Z,14.7
2022-11-16T10:28:00.701Z,14.7
2022-11-16T10:29:00.315Z,14.7
2022-11-16T10:30:00.650Z,14.7
2022-11-16T10:31:00.833Z,14.7
2022-11-16T10:32:00.659Z,14.7
2022-11-16T10:33:00.853Z,14.6
2022-11-16T10:34:00.921Z,14.6
2022-11-16T10:35:00.629Z,14.6
2022-11-16T10:36:00.426Z,14.6
2022-11-16T10:37:00.761Z,14.6
2022-11-16T10:38:00.631Z,14.7
2022-11-16T10:39:00.587Z,14.8
2022-11-16T10:40:00.760Z,14.9
2022-11-16T10:41:00.565Z,15.0
2022-11-16T10:42:06.131Z,14.9
2022-11-16T10:43:00.803Z,14.9
2022-11-16T10:44:00.690Z,14.8
2022-11-16T10:45:00.740Z,14.7
2022-11-16T10:46:00.595Z,14.5
2022-11-16T10:47:00.684Z,14.4
2022-11-16T10:48:00.661Z,14.4
2022-11-16T10:49:00.743Z,14.5
2022-11-16T10:50:00.337Z,14.5
2022-11-16T10:51:00.495Z,14.5
2022-11-16T10:52:00.638Z,14.4
2022-11-16T10:53:00.725Z,14.4
2022-11-16T10:54:00.630Z,14.3
2022-11-16T10:55:00.970Z,14.5
2022-11-16T10:56:00.297Z,14.6
2022-11-16T10:57:00.298Z,14.7
2022-11-16T10:58:00.304Z,14.8
2022-11-16T10:59:00.303Z,15.5
2022-11-16T11:00:00.314Z,16.4
2022-11-16T11:01:00.771Z,17.5
2022-11-16T11:02:00.305Z,18.5
2022-11-16T11:03:00.313Z,19.6
2022-11-16T11:04:00.627Z,19.6
2022-11-16T11:05:00.296Z,19.0
2022-11-16T11:06:00.288Z,18.2
2022-11-16T11:07:00.495Z,19.2
2022-11-16T11:08:00.287Z,19.4
2022-11-16T11:09:00.287Z,20.4
2022-11-16T11:10:00.380Z,21.4
2022-11-16T11:11:00.405Z,22.2
2022-11-16T11:12:00.307Z,22.7
2022-11-16T11:13:00.550Z,22.8
2022-11-16T11:14:00.302Z,23.0
2022-11-16T11:15:00.360Z,23.3
2022-11-16T11:16:00.318Z,23.5
2022-11-16T11:17:00.350Z,23.2
2022-11-16T11:18:00.313Z,22.5
2022-11-16T11:19:00.462Z,21.9
2022-11-16T11:20:00.315Z,21.5
2022-11-16T11:21:00.305Z,20.9
2022-11-16T11:22:00.299Z,20.4
2022-11-16T11:23:00.302Z,19.6
2022-11-16T11:24:16.397Z,18.8
2022-11-16T11:25:00.402Z,18.1
2022-11-16T11:26:00.354Z,17.6
2022-11-16T11:27:00.376Z,17.1
2022-11-16T11:28:00.285Z,16.7
2022-11-16T11:29:00.353Z,16.3
2022-11-16T11:30:00.316Z,16.1
2022-11-16T11:31:00.492Z,16.2
2022-11-16T11:32:00.330Z,16.4
2022-11-16T11:33:00.312Z,16.5
2022-11-16T11:34:00.536Z,16.4
2022-11-16T11:35:00.312Z,16.4
2022-11-16T11:36:00.281Z,16.4
2022-11-16T11:37:00.515Z,16.1
2022-11-16T11:38:04.772Z,15.8
2022-11-16T11:39:02.157Z,15.4
2022-11-16T11:40:02.062Z,15.2
2022-11-16T11:41:00.302Z,14.9
2022-11-16T11:42:00.294Z,14.8
2022-11-16T11:43:00.446Z,14.7
2022-11-16T11:44:00.337Z,14.6
2022-11-16T11:45:00.296Z,14.6
2022-11-16T11:46:00.301Z,14.5
2022-11-16T11:47:50.429Z,14.4
2022-11-16T11:48:00.717Z,14.3
2022-11-16T11:49:00.533Z,14.3
2022-11-16T11:50:00.304Z,14.2
2022-11-16T11:51:00.424Z,14.2
2022-11-16T11:52:00.308Z,14.1
2022-11-16T11:53:00.305Z,14.1
2022-11-16T11:54:00.389Z,14.0
2022-11-16T11:55:00.477Z,13.9
2022-11-16T11:56:00.286Z,13.9
2022-11-16T11:57:00.317Z,13.8
2022-11-16T11:58:00.283Z,13.6
2022-11-16T11:59:00.296Z,13.5
2022-11-16T12:00:00.324Z,13.4
2022-11-16T12:01:00.550Z,13.4
2022-11-16T12:02:00.361Z,13.3
2022-11-16T12:03:00.376Z,13.2
2022-11-16T12:04:00.448Z,13.2
2022-11-16T12:05:00.288Z,13.1
2022-11-16T12:06:00.359Z,13.1
2022-11-16T12:07:00.603Z,13.0
2022-11-16T12:08:00.328Z,13.0
2022-11-16T12:09:00.366Z,13.0
2022-11-16T12:10:00.323Z,12.9
2022-11-16T12:11:00.290Z,12.9
2022-11-16T12:12:00.314Z,12.9
2022-11-16T12:13:00.456Z,12.9
2022-11-16T12:14:00.298Z,12.9
2022-11-16T12:15:00.304Z,12.9
2022-11-16T12:16:00.317Z,12.8
2022-11-16T12:17:00.326Z,12.8
2022-11-16T12:18:00.303Z,12.7
2022-11-16T12:19:00.506Z,12.7
2022-11-16T12:20:00.305Z,12.6
2022-11-16T12:21:00.287Z,12.6
2022-11-16T12:22:00.300Z,12.5
2022-11-16T12:23:03.948Z,12.5
2022-11-16T12:24:00.310Z,12.4
2022-11-16T12:25:00.486Z,12.3
2022-11-16T12:26:00.374Z,12.3
2022-11-16T12:27:00.310Z,12.2
2022-11-16T12:28:00.326Z,12.1
2022-11-16T12:29:00.302Z,12.0
2022-11-16T12:30:00.324Z,12.0
2022-11-16T12:31:00.601Z,11.9
2022-11-16T12:32:00.307Z,11.9
2022-11-16T12:33:00.315Z,11.8
2022-11-16T12:34:00.284Z,11.8
2022-11-16T12:35:00.461Z,11.8
2022-11-16T12:36:00.288Z,11.8
2022-11-16T12:37:00.460Z,11.7
2022-11-16T12:38:00.299Z,11.7
2022-11-16T12:39:00.302Z,11.7
2022-11-16T12:40:00.288Z,11.6
2022-11-16T12:41:00.354Z,11.5
2022-11-16T12:42:00.376Z,11.4
2022-11-16T12:43:00.517Z,11.3
2022-11-16T12:44:00.283Z,11.2
2022-11-16T12:45:00.381Z,11.2
2022-11-16T12:46:00.301Z,11.1
2022-11-16T12:47:00.345Z,11.1
2022-11-16T12:48:00.310Z,11.0
2022-11-16T12:49:00.455Z,10.9
2022-11-16T12:50:00.687Z,10.9
2022-11-16T12:51:00.284Z,10.8
2022-11-16T12:52:00.278Z,10.8
2022-11-16T12:53:00.322Z,10.7
2022-11-16T12:54:00.302Z,10.7
2022-11-16T12:55:25.367Z,10.7
2022-11-16T12:56:00.300Z,10.6
2022-11-16T12:57:00.302Z,10.6
2022-11-16T12:58:00.333Z,10.6
2022-11-16T12:59:00.298Z,10.5
2022-11-16T13:00:00.291Z,10.5
2022-11-16T13:01:00.475Z,10.4
2022-11-16T13:02:00.744Z,10.4
2022-11-16T13:03:00.297Z,10.3
2022-11-16T13:04:00.311Z,10.3
2022-11-16T13:05:00.495Z,10.3
2022-11-16T13:06:00.281Z,10.3
2022-11-16T13:07:00.645Z,10.2
2022-11-16T13:08:00.305Z,10.2
2022-11-16T13:09:00.300Z,10.2
2022-11-16T13:10:00.301Z,10.1
2022-11-16T13:11:00.540Z,10.1
2022-11-16T13:12:00.296Z,10.1
2022-11-16T13:13:29.607Z,10.0
2022-11-16T13:14:00.852Z,10.0
2022-11-16T13:15:00.320Z,10.0
2022-11-16T13:16:00.305Z,10.0
2022-11-16T13:17:00.290Z,10.0
2022-11-16T13:18:00.297Z,9.9
2022-11-16T13:19:00.461Z,9.9
2022-11-16T13:20:00.562Z,9.9
2022-11-16T13:21:00.294Z,9.8
2022-11-16T13:22:00.286Z,9.8
2022-11-16T13:23:00.290Z,9.8
2022-11-16T13:24:00.353Z,9.7
2022-11-16T13:25:00.432Z,9.7
2022-11-16T13:26:00.334Z,9.7
2022-11-16T13:27:00.307Z,9.6
2022-11-16T13:28:00.335Z,9.6
2022-11-16T13:29:00.375Z,9.6
2022-11-16T13:30:00.374Z,9.6